Time;durP1;ratioP1;P1;durP2;ratioP2;P2;SDS_P1;SDS_P2;PMS_P1;PMS_P2;Temp;Humidity;BMP_temperature;BMP_pressure;BME280_temperature;BME280_humidity;BME280_pressure;Samples;Min_cycle;Max_cycle;Signal;HPM_P1;HPM_P2
2021/01/13 00:00:21;;;;;;;11.95;5.00;;;0.90;99.90;;;;;;5013119;28;20381;-83
2021/01/13 00:02:48;;;;;;;15.30;5.82;;;0.90;99.90;;;;;;5013517;28;20203;-83
2021/01/13 00:05:15;;;;;;;12.98;5.32;;;0.90;99.90;;;;;;5012610;28;20540;-84
2021/01/13 00:07:41;;;;;;;14.48;5.40;;;0.90;99.90;;;;;;5013545;28;20198;-84
2021/01/13 00:10:08;;;;;;;12.05;6.00;;;0.90;99.90;;;;;;5013870;28;20290;-85
2021/01/13 00:12:35;;;;;;;13.98;5.72;;;0.90;99.90;;;;;;5008946;28;20639;-84
2021/01/13 00:15:01;;;;;;;9.48;5.57;;;0.90;99.90;;;;;;5013759;28;20199;-84
2021/01/13 00:17:29;;;;;;;9.35;4.60;;;0.90;99.90;;;;;;5014347;28;20256;-83
2021/01/13 00:19:56;;;;;;;13.77;5.65;;;0.80;99.90;;;;;;5014785;28;20634;-84
2021/01/13 00:22:24;;;;;;;14.80;5.40;;;0.80;99.90;;;;;;5013700;28;20265;-84
2021/01/13 00:24:51;;;;;;;11.57;4.80;;;0.80;99.90;;;;;;5014511;28;20349;-85
2021/01/13 00:27:21;;;;;;;11.98;5.22;;;0.80;99.90;;;;;;5016218;28;20632;-85
2021/01/13 00:29:49;;;;;;;16.30;5.53;;;0.70;99.90;;;;;;5016020;28;20216;-84
2021/01/13 00:32:15;;;;;;;13.02;5.18;;;0.70;99.90;;;;;;5014573;28;20216;-85
2021/01/13 00:34:42;;;;;;;11.55;5.25;;;0.70;99.90;;;;;;5016192;28;20555;-85
2021/01/13 00:37:09;;;;;;;10.25;5.07;;;0.70;99.90;;;;;;5014192;28;20195;-85
2021/01/13 00:39:35;;;;;;;10.40;4.75;;;0.70;99.90;;;;;;5014827;28;20333;-85
2021/01/13 00:42:02;;;;;;;14.35;5.38;;;0.60;99.90;;;;;;5014891;28;20612;-84
2021/01/13 00:44:28;;;;;;;11.05;4.70;;;0.60;99.90;;;;;;5015679;28;20255;-85
2021/01/13 00:46:55;;;;;;;11.82;5.35;;;0.70;99.90;;;;;;5015517;28;20237;-86
2021/01/13 00:49:21;;;;;;;11.77;4.90;;;0.70;99.90;;;;;;5014085;28;20205;-85
2021/01/13 00:51:48;;;;;;;13.35;4.38;;;0.60;99.90;;;;;;5015895;28;20234;-86
2021/01/13 00:54:15;;;;;;;11.15;4.45;;;0.60;99.90;;;;;;5016459;28;20333;-86
2021/01/13 00:56:43;;;;;;;14.27;5.28;;;0.60;99.90;;;;;;5015677;28;20205;-86
2021/01/13 00:59:10;;;;;;;14.82;6.05;;;0.60;99.90;;;;;;5013835;28;20549;-85
2021/01/13 01:01:37;;;;;;;12.60;5.20;;;0.60;99.90;;;;;;5015525;28;20205;-86
2021/01/13 01:04:04;;;;;;;9.02;5.40;;;0.60;99.90;;;;;;5018972;28;20300;-83
2021/01/13 01:06:31;;;;;;;14.45;6.05;;;0.70;99.90;;;;;;5025948;28;20202;-86
2021/01/13 01:08:58;;;;;;;10.48;5.70;;;0.80;99.90;;;;;;5026631;28;20206;-86
2021/01/13 01:11:27;;;;;;;15.90;6.25;;;0.80;99.90;;;;;;5028413;28;20210;-85
2021/01/13 01:13:53;;;;;;;12.27;6.13;;;0.90;99.90;;;;;;5006302;28;20230;-85
2021/01/13 01:16:20;;;;;;;15.93;5.43;;;1.00;99.90;;;;;;5007483;28;20230;-86
2021/01/13 01:18:46;;;;;;;13.48;6.20;;;1.00;99.90;;;;;;5003505;28;20206;-86
2021/01/13 01:21:13;;;;;;;12.35;6.20;;;1.10;99.90;;;;;;5013534;28;20320;-86
2021/01/13 01:23:39;;;;;;;13.20;5.90;;;1.10;99.90;;;;;;5013980;28;20245;-86
2021/01/13 01:26:07;;;;;;;13.07;7.55;;;1.10;99.90;;;;;;5011984;28;20209;-84
2021/01/13 01:28:33;;;;;;;11.02;6.53;;;1.10;99.90;;;;;;5012838;28;20313;-86
2021/01/13 01:30:59;;;;;;;12.52;6.30;;;1.10;99.90;;;;;;5013355;28;20206;-86
2021/01/13 01:33:26;;;;;;;9.65;6.13;;;1.20;99.90;;;;;;5012577;28;20325;-86
2021/01/13 01:35:52;;;;;;;11.07;6.50;;;1.20;99.90;;;;;;5014314;28;20206;-85
2021/01/13 01:38:19;;;;;;;12.50;7.05;;;1.20;99.90;;;;;;5015373;28;20238;-85
2021/01/13 01:40:45;;;;;;;15.65;6.70;;;1.20;99.90;;;;;;5015824;28;20206;-85
2021/01/13 01:43:12;;;;;;;15.27;6.77;;;1.20;99.90;;;;;;5015421;28;20217;-85
2021/01/13 01:45:39;;;;;;;12.98;6.40;;;1.20;99.90;;;;;;5015950;28;20446;-85
2021/01/13 01:48:15;;;;;;;12.10;6.25;;;1.30;99.90;;;;;;5015609;28;20211;-83
2021/01/13 01:50:43;;;;;;;14.65;7.22;;;1.30;99.90;;;;;;5015908;28;20194;-86
2021/01/13 01:53:20;;;;;;;11.98;6.70;;;1.30;99.90;;;;;;5015331;28;20244;-85
2021/01/13 01:55:53;;;;;;;11.95;6.03;;;1.30;99.90;;;;;;5015991;28;20193;-85
2021/01/13 01:58:26;;;;;;;15.77;6.70;;;1.30;99.90;;;;;;5015235;28;20191;-85
2021/01/13 02:00:55;;;;;;;10.60;5.70;;;1.40;99.90;;;;;;5016175;28;20530;-85
2021/01/13 02:03:24;;;;;;;14.73;7.40;;;1.40;99.90;;;;;;5014762;28;20703;-86
2021/01/13 02:05:57;;;;;;;9.10;7.40;;;1.50;99.90;;;;;;5016545;28;20214;-86
2021/01/13 02:08:23;;;;;;;14.65;6.78;;;1.50;99.90;;;;;;5017867;28;20690;-86
2021/01/13 02:10:51;;;;;;;9.18;6.40;;;1.60;99.90;;;;;;5015352;28;20638;-84
2021/01/13 02:13:19;;;;;;;13.00;7.10;;;1.60;99.90;;;;;;5003832;28;20609;-86
2021/01/13 02:15:49;;;;;;;13.80;6.25;;;1.70;99.90;;;;;;4996113;28;20458;-86
2021/01/13 02:18:18;;;;;;;12.68;6.00;;;1.70;99.90;;;;;;5013544;28;20706;-86
2021/01/13 02:20:52;;;;;;;9.85;5.90;;;1.70;99.90;;;;;;5015104;28;20372;-85
2021/01/13 02:23:30;;;;;;;15.87;7.20;;;1.60;99.90;;;;;;5014448;28;20200;-86
2021/01/13 02:26:39;;;;;;;13.38;5.50;;;1.60;99.90;;;;;;5016147;28;20429;-85
2021/01/13 02:29:20;;;;;;;15.32;6.25;;;1.60;99.90;;;;;;5014880;28;20205;-84
2021/01/13 02:32:05;;;;;;;10.13;5.43;;;1.50;99.90;;;;;;5015729;28;20581;-86
2021/01/13 02:34:42;;;;;;;10.25;6.00;;;1.60;99.90;;;;;;5014640;28;20213;-85
2021/01/13 02:37:38;;;;;;;11.93;6.40;;;1.50;99.90;;;;;;5013876;28;20193;-84
2021/01/13 02:40:07;;;;;;;13.23;7.00;;;1.50;99.90;;;;;;5015089;28;20284;-84
2021/01/13 02:42:37;;;;;;;13.25;6.25;;;1.50;99.90;;;;;;5015462;28;20516;-86
2021/01/13 02:45:11;;;;;;;10.90;5.70;;;1.40;99.90;;;;;;5015434;28;20682;-86
2021/01/13 02:48:10;;;;;;;18.05;5.60;;;1.40;99.90;;;;;;5014939;28;20187;-86
2021/01/13 02:50:38;;;;;;;12.32;5.57;;;1.40;99.90;;;;;;5011450;28;20650;-86
2021/01/13 02:53:43;;;;;;;16.00;6.45;;;1.40;99.90;;;;;;5015256;28;20230;-84
2021/01/13 02:56:31;;;;;;;10.82;6.28;;;1.50;99.90;;;;;;4996479;28;20207;-84
2021/01/13 02:59:06;;;;;;;11.60;6.30;;;1.50;99.90;;;;;;4992326;28;20558;-86
2021/01/13 03:01:37;;;;;;;8.57;5.07;;;1.50;99.90;;;;;;5014382;28;20195;-86
2021/01/13 03:04:04;;;;;;;11.95;5.75;;;1.50;99.90;;;;;;5015194;28;20195;-87
2021/01/13 03:06:35;;;;;;;10.98;5.82;;;1.60;99.90;;;;;;5013900;28;20644;-86
2021/01/13 03:09:03;;;;;;;11.50;5.90;;;1.70;99.90;;;;;;5014507;28;20619;-85
2021/01/13 03:11:30;;;;;;;9.50;5.40;;;1.70;99.90;;;;;;5013945;28;20199;-84
2021/01/13 03:14:08;;;;;;;12.60;5.53;;;1.70;99.90;;;;;;5003672;28;20227;-86
2021/01/13 03:16:41;;;;;;;12.52;5.63;;;1.80;99.90;;;;;;5015426;28;20222;-86
2021/01/13 03:19:17;;;;;;;12.23;5.85;;;1.80;99.90;;;;;;4996123;28;20207;-84
2021/01/13 03:21:52;;;;;;;10.57;5.33;;;1.80;99.90;;;;;;4995264;28;20211;-85
2021/01/13 03:24:28;;;;;;;7.30;4.68;;;1.80;99.90;;;;;;4994139;28;20462;-86
2021/01/13 03:26:56;;;;;;;11.38;5.35;;;1.80;99.90;;;;;;5009805;28;20251;-86
2021/01/13 03:29:24;;;;;;;10.68;5.32;;;1.80;99.90;;;;;;5013551;28;20214;-86
2021/01/13 03:32:07;;;;;;;11.13;5.50;;;1.80;99.90;;;;;;5014162;28;20711;-86
2021/01/13 03:34:40;;;;;;;4.95;4.05;;;1.80;99.90;;;;;;5013996;28;20557;-86
2021/01/13 03:37:17;;;;;;;10.13;4.80;;;1.80;99.90;;;;;;5013924;28;20187;-86
2021/01/13 03:39:44;;;;;;;10.10;4.75;;;1.80;99.90;;;;;;5014275;28;20280;-86
2021/01/13 03:42:13;;;;;;;14.70;6.20;;;1.80;99.90;;;;;;5014037;28;20199;-84
2021/01/13 03:44:42;;;;;;;10.70;5.60;;;1.80;99.90;;;;;;5013727;28;20454;-86
2021/01/13 03:47:45;;;;;;;9.83;5.37;;;1.80;99.90;;;;;;5013766;28;20454;-85
2021/01/13 03:50:18;;;;;;;9.65;5.40;;;1.80;99.90;;;;;;5013745;28;20438;-84
2021/01/13 03:52:57;;;;;;;13.10;5.17;;;1.90;99.90;;;;;;5013679;28;20195;-86
2021/01/13 03:55:28;;;;;;;13.48;5.47;;;1.90;99.90;;;;;;4993718;28;20482;-86
2021/01/13 03:58:25;;;;;;;16.85;6.20;;;2.00;99.90;;;;;;4994068;28;20202;-86
2021/01/13 04:01:00;;;;;;;10.48;4.97;;;2.00;99.90;;;;;;4993976;28;20616;-86
2021/01/13 04:03:29;;;;;;;13.82;5.57;;;1.90;99.90;;;;;;4996478;28;20566;-86
2021/01/13 04:06:05;;;;;;;10.77;5.70;;;1.80;99.90;;;;;;5013794;28;20203;-86
2021/01/13 04:08:35;;;;;;;8.90;4.45;;;1.70;99.90;;;;;;5012572;28;20661;-86
2021/01/13 04:11:04;;;;;;;13.00;6.43;;;1.70;99.90;;;;;;5013872;28;20194;-86
2021/01/13 04:13:39;;;;;;;11.13;5.60;;;1.70;99.90;;;;;;5003194;28;20277;-86
2021/01/13 04:16:08;;;;;;;13.43;4.50;;;1.60;99.90;;;;;;5013515;28;20932;-86
2021/01/13 04:18:35;;;;;;;10.20;4.83;;;1.50;99.90;;;;;;5012328;28;20205;-86
2021/01/13 04:21:04;;;;;;;13.37;6.80;;;1.50;99.90;;;;;;5013450;28;20456;-86
2021/01/13 04:23:31;;;;;;;14.75;6.72;;;1.50;99.90;;;;;;5012793;28;20458;-86
2021/01/13 04:25:58;;;;;;;15.43;7.50;;;1.40;99.90;;;;;;5013005;28;20209;-86
2021/01/13 04:28:26;;;;;;;16.90;7.90;;;1.40;99.90;;;;;;5008186;28;20911;-86
2021/01/13 04:30:53;;;;;;;12.55;5.90;;;1.40;99.90;;;;;;5013510;28;20454;-86
2021/01/13 04:33:20;;;;;;;13.07;5.75;;;1.30;99.90;;;;;;5012646;28;20241;-86
2021/01/13 04:35:47;;;;;;;13.38;5.60;;;1.40;99.90;;;;;;5013410;28;20207;-86
2021/01/13 04:38:20;;;;;;;12.10;5.40;;;1.40;99.90;;;;;;5012144;28;20237;-83
2021/01/13 04:40:50;;;;;;;11.50;7.03;;;1.40;99.90;;;;;;5013673;28;20198;-86
2021/01/13 04:43:22;;;;;;;11.30;5.72;;;1.40;99.90;;;;;;5012051;28;20462;-85
2021/01/13 04:45:49;;;;;;;19.23;7.50;;;1.50;99.90;;;;;;5012900;28;20191;-86
2021/01/13 04:48:17;;;;;;;10.93;5.73;;;1.60;99.90;;;;;;5012718;28;20212;-85
2021/01/13 04:50:45;;;;;;;11.02;6.50;;;1.60;99.90;;;;;;5013227;28;20449;-86
2021/01/13 04:53:14;;;;;;;12.35;6.40;;;1.50;99.90;;;;;;5013036;28;20339;-84
2021/01/13 04:55:50;;;;;;;15.13;7.63;;;1.50;99.90;;;;;;5013465;28;20337;-87
2021/01/13 04:58:55;;;;;;;10.98;6.00;;;1.50;99.90;;;;;;5012658;28;20847;-86
2021/01/13 05:02:04;;;;;;;12.23;7.57;;;1.50;99.90;;;;;;5012028;28;20198;-86
2021/01/13 05:05:03;;;;;;;11.95;6.50;;;1.50;99.90;;;;;;4993244;28;20210;-86
2021/01/13 05:07:37;;;;;;;10.47;7.00;;;1.50;99.90;;;;;;5002715;28;20289;-86
2021/01/13 05:10:10;;;;;;;14.20;7.80;;;1.40;99.90;;;;;;5012967;28;20413;-87
2021/01/13 05:12:49;;;;;;;12.00;7.00;;;1.50;99.90;;;;;;5012302;28;20945;-86
2021/01/13 05:15:17;;;;;;;13.57;7.45;;;1.50;99.90;;;;;;5010364;28;20275;-85
2021/01/13 05:17:58;;;;;;;16.35;7.75;;;1.50;99.90;;;;;;5016823;28;20211;-86
2021/01/13 05:20:27;;;;;;;15.00;9.00;;;1.50;99.90;;;;;;5016115;28;20198;-87
2021/01/13 05:22:55;;;;;;;14.15;8.10;;;1.50;99.90;;;;;;5005858;28;20458;-87
2021/01/13 05:25:42;;;;;;;10.07;6.68;;;1.50;99.90;;;;;;4996004;28;20210;-86
2021/01/13 05:28:13;;;;;;;8.57;6.65;;;1.60;99.90;;;;;;5009365;28;20263;-86
2021/01/13 05:30:41;;;;;;;17.93;10.27;;;1.70;99.90;;;;;;5016136;28;20281;-86
2021/01/13 05:33:10;;;;;;;19.87;8.93;;;1.70;99.90;;;;;;5016238;28;20445;-86
2021/01/13 05:35:40;;;;;;;12.73;7.78;;;1.80;99.90;;;;;;5016077;28;20446;-85
2021/01/13 05:38:15;;;;;;;11.20;8.40;;;1.90;99.90;;;;;;5015868;28;20309;-85
2021/01/13 05:40:44;;;;;;;13.85;7.90;;;1.90;99.90;;;;;;5007822;28;20428;-86
2021/01/13 05:43:11;;;;;;;21.50;7.80;;;2.00;99.90;;;;;;5001527;28;20208;-86
2021/01/13 05:45:38;;;;;;;13.63;7.30;;;2.10;99.90;;;;;;5015074;28;20199;-86
2021/01/13 05:48:17;;;;;;;18.83;7.70;;;2.20;99.90;;;;;;4996835;28;20207;-87
2021/01/13 05:50:44;;;;;;;12.50;7.30;;;2.30;99.90;;;;;;4996455;28;20437;-87
2021/01/13 05:53:12;;;;;;;15.50;7.55;;;2.40;99.90;;;;;;4996429;28;20206;-86
2021/01/13 05:55:47;;;;;;;11.33;6.27;;;2.40;99.90;;;;;;5011562;28;20342;-87
2021/01/13 05:58:14;;;;;;;18.77;7.47;;;2.50;99.90;;;;;;5016512;28;20457;-84
2021/01/13 06:00:41;;;;;;;13.57;7.77;;;2.60;99.90;;;;;;5015526;28;21006;-85
2021/01/13 06:03:11;;;;;;;17.30;6.95;;;2.60;99.90;;;;;;5015643;28;20458;-87
2021/01/13 06:05:48;;;;;;;10.05;6.30;;;2.60;99.90;;;;;;5014876;28;20225;-87
2021/01/13 06:08:15;;;;;;;10.77;7.27;;;2.60;99.90;;;;;;5015944;28;20198;-84
2021/01/13 06:10:42;;;;;;;14.87;8.20;;;2.60;99.90;;;;;;5014955;28;20942;-85
2021/01/13 06:13:16;;;;;;;17.87;8.67;;;2.60;99.90;;;;;;5007237;28;20606;-86
2021/01/13 06:15:45;;;;;;;19.57;7.70;;;2.60;99.90;;;;;;5015021;28;20953;-86
2021/01/13 06:18:21;;;;;;;11.30;7.33;;;2.60;99.90;;;;;;5006828;28;20456;-86
2021/01/13 06:20:47;;;;;;;12.83;8.10;;;2.70;99.90;;;;;;5008146;28;20447;-86
2021/01/13 06:23:16;;;;;;;15.20;8.13;;;2.80;99.90;;;;;;5008516;28;20455;-87
2021/01/13 06:25:44;;;;;;;13.63;8.80;;;2.70;99.90;;;;;;5011069;28;20787;-86
2021/01/13 06:28:31;;;;;;;14.50;7.80;;;2.70;99.90;;;;;;5015569;28;20946;-87
2021/01/13 06:31:03;;;;;;;16.63;10.23;;;2.70;99.90;;;;;;5031653;28;20441;-86
2021/01/13 06:33:39;;;;;;;15.23;9.20;;;2.70;99.90;;;;;;5026949;28;20898;-85
2021/01/13 06:36:13;;;;;;;15.13;9.10;;;2.70;99.90;;;;;;5025896;28;20437;-85
2021/01/13 06:38:43;;;;;;;17.93;9.10;;;2.70;99.90;;;;;;5022087;28;20548;-85
2021/01/13 06:41:11;;;;;;;16.10;9.17;;;2.70;99.90;;;;;;5015914;28;20446;-85
2021/01/13 06:43:38;;;;;;;17.93;9.40;;;2.60;99.90;;;;;;5015047;28;20450;-85
2021/01/13 06:46:19;;;;;;;16.80;7.90;;;2.60;99.90;;;;;;5015465;28;20977;-85
2021/01/13 06:48:45;;;;;;;13.00;7.30;;;2.70;99.90;;;;;;5015997;28;20434;-82
2021/01/13 06:51:15;;;;;;;16.63;10.30;;;2.70;99.90;;;;;;5014940;28;20458;-82
2021/01/13 06:53:45;;;;;;;69.50;33.77;;;2.80;99.90;;;;;;5014139;28;20540;-82
2021/01/13 06:56:12;;;;;;;38.13;20.10;;;2.70;99.90;;;;;;5014973;28;20473;-82
2021/01/13 06:58:39;;;;;;;22.93;14.23;;;2.80;99.90;;;;;;5013715;28;20673;-84
2021/01/13 07:01:06;;;;;;;22.10;14.17;;;2.70;99.90;;;;;;5014809;28;20452;-84
2021/01/13 07:03:49;;;;;;;22.63;12.63;;;2.80;99.90;;;;;;5017834;28;20462;-85
2021/01/13 07:06:25;;;;;;;22.37;14.00;;;2.80;99.90;;;;;;5015102;28;20431;-84
2021/01/13 07:09:06;;;;;;;22.63;10.75;;;2.70;99.90;;;;;;5015514;28;20433;-83
2021/01/13 07:11:45;;;;;;;15.40;10.37;;;2.80;99.90;;;;;;5013673;28;20579;-83
2021/01/13 07:14:20;;;;;;;20.77;12.70;;;2.80;99.90;;;;;;5011776;28;20485;-83
2021/01/13 07:16:55;;;;;;;20.83;13.50;;;2.80;99.90;;;;;;5012555;28;20433;-82
2021/01/13 07:19:28;;;;;;;16.70;11.50;;;2.70;99.90;;;;;;5014082;28;20198;-83
2021/01/13 07:21:58;;;;;;;15.23;10.63;;;2.60;99.90;;;;;;5014288;28;20432;-81
2021/01/13 07:24:32;;;;;;;21.75;12.60;;;2.50;99.90;;;;;;5013930;28;20477;-82
2021/01/13 07:27:01;;;;;;;23.75;14.57;;;2.50;99.90;;;;;;5014479;28;20222;-83
2021/01/13 07:29:33;;;;;;;21.83;13.63;;;2.40;99.90;;;;;;5013762;28;20206;-83
2021/01/13 07:32:08;;;;;;;21.60;11.97;;;2.40;99.90;;;;;;5014453;28;20249;-83
2021/01/13 07:34:49;;;;;;;18.50;11.70;;;2.40;99.90;;;;;;5012582;28;20484;-82
2021/01/13 07:37:36;;;;;;;19.45;12.63;;;2.30;99.90;;;;;;5014344;28;20454;-83
2021/01/13 07:40:39;;;;;;;22.10;13.48;;;2.30;99.90;;;;;;5015353;28;20234;-83
2021/01/13 07:43:13;;;;;;;20.17;13.30;;;2.20;99.90;;;;;;5014627;28;20210;-83
2021/01/13 07:45:55;;;;;;;21.38;12.25;;;2.20;99.90;;;;;;5013662;28;20221;-82
2021/01/13 07:49:07;;;;;;;27.97;12.53;;;2.30;99.90;;;;;;5013869;28;20195;-82
2021/01/13 07:51:46;;;;;;;18.00;11.33;;;2.20;99.90;;;;;;5015709;28;20538;-82
2021/01/13 07:54:30;;;;;;;23.23;13.03;;;2.30;99.90;;;;;;5013750;28;20854;-83
2021/01/13 07:57:00;;;;;;;27.67;12.07;;;2.30;99.90;;;;;;5014188;28;20967;-83
2021/01/13 07:59:39;;;;;;;19.52;13.15;;;2.30;99.90;;;;;;5013074;28;20916;-82
2021/01/13 08:02:51;;;;;;;23.00;12.13;;;2.30;99.90;;;;;;5014602;28;20659;-82
2021/01/13 08:06:02;;;;;;;17.27;11.47;;;2.30;99.90;;;;;;5013669;28;20445;-83
2021/01/13 08:09:02;;;;;;;21.50;12.20;;;2.30;99.90;;;;;;5012540;28;20454;-83
2021/01/13 08:11:56;;;;;;;21.23;14.20;;;2.40;99.90;;;;;;5013072;28;20477;-83
2021/01/13 08:14:48;;;;;;;24.90;15.00;;;2.40;99.90;;;;;;5009248;28;20547;-85
2021/01/13 08:18:01;;;;;;;23.20;14.40;;;2.40;99.90;;;;;;4993943;28;20458;-83
2021/01/13 08:20:56;;;;;;;32.80;15.60;;;2.40;99.90;;;;;;4993286;28;20462;-83
2021/01/13 08:23:41;;;;;;;18.13;12.43;;;2.50;99.90;;;;;;4993210;28;20451;-86
2021/01/13 08:26:10;;;;;;;25.27;12.77;;;2.50;99.90;;;;;;5009863;28;20456;-82
2021/01/13 08:28:40;;;;;;;24.17;14.67;;;2.50;99.90;;;;;;5013235;28;20458;-82
2021/01/13 08:31:09;;;;;;;16.80;11.57;;;2.60;99.90;;;;;;5013174;28;20454;-83
2021/01/13 08:33:40;;;;;;;21.77;13.30;;;2.70;99.90;;;;;;5012724;28;20576;-83
2021/01/13 08:36:09;;;;;;;24.00;13.50;;;2.80;99.90;;;;;;5014087;28;20477;-83
2021/01/13 08:38:36;;;;;;;23.23;12.03;;;2.80;99.90;;;;;;5012752;28;20565;-83
2021/01/13 08:41:23;;;;;;;12.80;10.53;;;2.90;99.90;;;;;;5014084;28;20914;-82
2021/01/13 08:44:16;;;;;;;24.27;13.20;;;3.00;99.90;;;;;;5013283;28;20448;-83
2021/01/13 08:47:00;;;;;;;25.10;11.57;;;2.90;99.90;;;;;;5016575;28;20442;-83
2021/01/13 08:49:28;;;;;;;23.47;11.97;;;2.90;99.90;;;;;;5017209;28;20456;-86
2021/01/13 08:52:14;;;;;;;16.20;11.43;;;2.90;99.90;;;;;;5017489;28;20481;-83
2021/01/13 08:55:06;;;;;;;18.30;10.90;;;3.00;99.90;;;;;;5016362;28;21004;-82
2021/01/13 08:57:57;;;;;;;19.53;11.07;;;3.10;99.90;;;;;;5016504;28;20438;-83
2021/01/13 09:00:25;;;;;;;19.70;9.97;;;3.30;99.90;;;;;;5017660;28;20439;-85
2021/01/13 09:03:10;;;;;;;21.33;10.23;;;3.30;99.90;;;;;;5017088;28;20537;-82
2021/01/13 09:05:38;;;;;;;18.57;9.77;;;3.20;99.90;;;;;;5016292;28;20448;-83
2021/01/13 09:08:06;;;;;;;13.30;9.27;;;3.10;99.90;;;;;;5017316;28;20493;-83
2021/01/13 09:10:51;;;;;;;21.73;10.83;;;3.10;99.90;;;;;;5016749;28;20461;-82
2021/01/13 09:13:39;;;;;;;26.13;11.43;;;3.00;99.90;;;;;;5016674;28;20911;-83
2021/01/13 09:16:34;;;;;;;16.93;10.50;;;3.00;99.90;;;;;;5016505;28;20788;-83
2021/01/13 09:19:06;;;;;;;20.03;10.27;;;3.00;99.90;;;;;;5012171;28;20488;-83
2021/01/13 09:21:34;;;;;;;15.27;11.03;;;3.00;99.90;;;;;;5015771;28;20922;-84
2021/01/13 09:24:01;;;;;;;22.60;11.87;;;3.10;99.90;;;;;;5017073;28;20541;-83
2021/01/13 09:26:33;;;;;;;20.93;14.03;;;3.30;99.90;;;;;;5016905;28;20973;-84
2021/01/13 09:29:03;;;;;;;19.57;10.70;;;3.40;99.90;;;;;;5016880;28;20450;-83
2021/01/13 09:31:29;;;;;;;20.80;11.10;;;3.60;99.90;;;;;;5015776;28;20525;-85
2021/01/13 09:33:57;;;;;;;21.27;13.93;;;3.70;99.90;;;;;;5016906;28;20911;-83
2021/01/13 09:36:23;;;;;;;14.63;11.80;;;4.00;99.90;;;;;;5020152;28;20457;-83
2021/01/13 09:38:57;;;;;;;14.10;10.90;;;4.00;99.90;;;;;;5010994;28;20490;-83
2021/01/13 09:41:25;;;;;;;17.30;10.57;;;4.00;99.90;;;;;;5004664;28;20459;-83
2021/01/13 09:44:10;;;;;;;16.33;10.43;;;4.00;99.90;;;;;;5002764;28;20515;-82
2021/01/13 09:46:43;;;;;;;23.23;13.83;;;4.10;99.90;;;;;;5004014;28;20478;-83
2021/01/13 09:49:11;;;;;;;17.40;10.37;;;4.00;99.90;;;;;;4997975;28;20424;-83
2021/01/13 09:51:41;;;;;;;22.23;12.30;;;4.10;99.90;;;;;;4997168;28;20457;-81
2021/01/13 09:54:15;;;;;;;19.43;11.37;;;4.20;99.90;;;;;;4998026;28;21013;-82
2021/01/13 09:56:44;;;;;;;14.73;9.37;;;4.10;99.90;;;;;;5002222;28;20453;-85
2021/01/13 09:59:15;;;;;;;13.17;8.90;;;4.20;99.90;;;;;;5002690;28;20940;-84
2021/01/13 10:01:44;;;;;;;17.57;9.13;;;4.30;99.90;;;;;;5013521;28;20460;-83
2021/01/13 10:04:13;;;;;;;13.93;9.40;;;4.40;99.90;;;;;;5015723;28;20468;-83
2021/01/13 10:06:41;;;;;;;13.00;8.63;;;4.20;99.90;;;;;;5014538;28;20961;-83
2021/01/13 10:09:10;;;;;;;14.70;9.20;;;4.40;99.90;;;;;;5015389;28;20917;-82
2021/01/13 10:11:37;;;;;;;17.47;9.27;;;4.40;99.90;;;;;;5014296;28;20448;-83
2021/01/13 10:14:06;;;;;;;17.33;9.00;;;4.50;99.90;;;;;;5014631;28;20580;-82
2021/01/13 10:16:40;;;;;;;25.20;9.53;;;4.70;99.90;;;;;;5013876;28;20464;-85
2021/01/13 10:19:07;;;;;;;15.43;8.63;;;4.70;99.90;;;;;;5014951;28;20457;-83
2021/01/13 10:21:37;;;;;;;13.80;8.93;;;4.70;99.90;;;;;;5014712;28;20496;-84
2021/01/13 10:24:04;;;;;;;16.20;9.10;;;4.70;99.90;;;;;;5015405;28;20554;-84
2021/01/13 10:26:35;;;;;;;18.33;8.70;;;4.70;99.90;;;;;;5014636;28;20988;-86
2021/01/13 10:29:02;;;;;;;11.17;9.43;;;4.60;99.90;;;;;;5010357;28;20455;-83
2021/01/13 10:31:29;;;;;;;17.80;9.77;;;4.50;99.90;;;;;;5014132;28;20465;-86
2021/01/13 10:33:57;;;;;;;20.30;9.37;;;4.40;99.90;;;;;;5004315;28;20986;-84
2021/01/13 10:36:36;;;;;;;16.47;9.10;;;4.40;99.90;;;;;;5017382;28;20658;-84
2021/01/13 10:39:08;;;;;;;16.60;9.10;;;4.40;99.90;;;;;;5015340;28;20578;-83
2021/01/13 10:41:38;;;;;;;17.73;8.90;;;4.30;99.90;;;;;;5014307;28;20455;-84
2021/01/13 10:44:07;;;;;;;20.37;11.80;;;4.30;99.90;;;;;;5015252;28;20541;-84
2021/01/13 10:46:54;;;;;;;18.00;10.00;;;4.30;99.90;;;;;;5014784;28;20488;-84
2021/01/13 10:49:35;;;;;;;15.13;10.13;;;4.60;99.90;;;;;;5014918;28;20505;-84
2021/01/13 10:52:05;;;;;;;14.07;10.50;;;4.80;99.90;;;;;;5015854;28;20523;-83
2021/01/13 10:54:36;;;;;;;20.67;12.30;;;5.10;99.90;;;;;;5015068;28;20959;-85
2021/01/13 10:57:05;;;;;;;17.50;10.73;;;5.20;99.90;;;;;;5015705;28;20822;-84
2021/01/13 10:59:32;;;;;;;14.37;11.17;;;5.20;99.90;;;;;;5013775;28;20463;-87
2021/01/13 11:02:01;;;;;;;19.60;11.30;;;5.20;99.90;;;;;;5014098;28;20461;-84
2021/01/13 11:04:33;;;;;;;21.53;10.23;;;5.30;99.90;;;;;;5013846;28;20935;-84
2021/01/13 11:07:06;;;;;;;26.00;11.80;;;5.30;99.90;;;;;;5016474;28;21243;-85
2021/01/13 11:09:32;;;;;;;13.50;10.20;;;5.20;99.90;;;;;;5013511;28;20453;-87
2021/01/13 11:11:59;;;;;;;21.23;9.70;;;5.30;99.90;;;;;;5014499;28;20448;-85
2021/01/13 11:14:48;;;;;;;27.10;16.90;;;5.50;99.90;;;;;;5013396;28;20489;-85
2021/01/13 11:17:16;;;;;;;29.40;12.10;;;5.60;99.90;;;;;;5014757;28;20442;-85
2021/01/13 11:19:46;;;;;;;17.73;10.80;;;5.60;99.90;;;;;;5013731;28;20450;-85
2021/01/13 11:22:14;;;;;;;16.70;11.20;;;5.50;99.90;;;;;;5012023;28;20461;-85
2021/01/13 11:24:46;;;;;;;19.60;10.77;;;5.50;99.90;;;;;;5014305;28;20461;-85
2021/01/13 11:27:15;;;;;;;22.87;11.20;;;5.40;99.90;;;;;;5014795;28;20456;-84
2021/01/13 11:29:45;;;;;;;15.00;11.80;;;5.50;99.90;;;;;;5014190;28;20975;-85
2021/01/13 11:32:17;;;;;;;14.47;10.13;;;5.90;99.90;;;;;;5013945;28;20455;-85
2021/01/13 11:34:48;;;;;;;15.27;10.40;;;6.30;99.90;;;;;;5013139;28;20488;-85
2021/01/13 11:47:26;;;;;;;16.23;12.30;;;6.00;99.90;;;;;;4994827;28;20738;-85
2021/01/13 11:49:54;;;;;;;19.73;11.30;;;5.80;99.90;;;;;;4996839;28;20457;-85
2021/01/13 11:52:22;;;;;;;15.53;13.00;;;5.90;99.90;;;;;;5014388;28;20502;-85
2021/01/13 11:54:50;;;;;;;17.60;11.87;;;5.80;99.90;;;;;;5013587;28;20492;-86
2021/01/13 11:57:22;;;;;;;20.23;11.03;;;5.60;99.90;;;;;;5016028;28;20457;-85
2021/01/13 11:59:50;;;;;;;19.33;12.90;;;5.60;99.90;;;;;;5016353;28;20584;-86
2021/01/13 12:02:22;;;;;;;17.40;12.53;;;5.50;99.90;;;;;;5017918;28;20516;-86
2021/01/13 12:04:49;;;;;;;21.33;13.93;;;5.40;99.90;;;;;;5020634;28;20539;-85
2021/01/13 12:07:16;;;;;;;19.00;14.20;;;5.50;99.90;;;;;;5014554;28;20753;-86
2021/01/13 12:09:43;;;;;;;18.10;13.10;;;5.40;99.90;;;;;;5013880;28;20532;-85
2021/01/13 12:12:09;;;;;;;20.40;13.17;;;5.40;99.90;;;;;;5013941;28;20510;-85
2021/01/13 12:14:44;;;;;;;19.93;12.17;;;5.40;99.90;;;;;;5012456;28;20484;-87
2021/01/13 12:17:11;;;;;;;21.80;12.70;;;5.30;99.90;;;;;;5009991;28;20456;-85
2021/01/13 12:19:42;;;;;;;23.97;13.57;;;5.20;99.90;;;;;;5013195;28;20456;-86
2021/01/13 12:22:09;;;;;;;19.60;12.70;;;5.20;99.90;;;;;;5013585;28;20547;-85
2021/01/13 12:24:42;;;;;;;16.73;12.00;;;5.10;99.90;;;;;;5012692;28;20555;-87
2021/01/13 12:27:26;;;;;;;16.53;12.30;;;5.10;99.90;;;;;;5013164;28;20968;-85
2021/01/13 12:30:10;;;;;;;16.40;10.90;;;5.20;99.90;;;;;;4995415;28;20462;-86
2021/01/13 12:32:37;;;;;;;19.87;12.30;;;5.30;99.90;;;;;;4997106;28;20460;-87
2021/01/13 12:35:06;;;;;;;20.07;11.67;;;5.30;99.90;;;;;;5010934;28;20492;-85
2021/01/13 12:37:44;;;;;;;17.83;13.63;;;5.20;99.90;;;;;;5012366;28;20479;-86
2021/01/13 12:40:14;;;;;;;20.20;11.90;;;5.20;99.90;;;;;;5012389;28;21008;-85
2021/01/13 12:42:41;;;;;;;14.80;10.90;;;5.30;99.90;;;;;;5011760;28;20461;-85
2021/01/13 12:45:08;;;;;;;13.50;11.00;;;5.40;99.90;;;;;;5012452;28;20492;-85
2021/01/13 12:47:34;;;;;;;16.63;11.63;;;5.50;99.90;;;;;;5011620;28;21009;-87
2021/01/13 12:50:02;;;;;;;15.10;12.30;;;5.60;99.90;;;;;;5012178;28;20457;-85
2021/01/13 12:52:29;;;;;;;16.40;10.57;;;5.60;99.90;;;;;;5012367;28;20469;-85
2021/01/13 12:54:55;;;;;;;17.00;10.63;;;5.60;99.90;;;;;;5010753;28;21058;-86
2021/01/13 12:57:22;;;;;;;16.80;12.30;;;5.70;99.90;;;;;;5012305;28;20536;-86
2021/01/13 12:59:48;;;;;;;14.50;9.57;;;5.70;99.90;;;;;;5012292;28;20452;-85
2021/01/13 13:02:14;;;;;;;14.23;11.20;;;5.60;99.90;;;;;;5013608;28;20552;-85
2021/01/13 13:04:41;;;;;;;20.87;12.03;;;5.40;99.90;;;;;;5012789;28;20522;-85
2021/01/13 13:07:07;;;;;;;17.47;12.47;;;5.30;99.90;;;;;;5012273;28;20543;-85
2021/01/13 13:09:34;;;;;;;21.93;12.70;;;5.40;99.90;;;;;;5012571;28;20656;-85
2021/01/13 13:12:00;;;;;;;16.70;12.30;;;5.30;99.90;;;;;;5012233;28;20453;-85
2021/01/13 13:14:27;;;;;;;24.73;13.40;;;5.20;99.90;;;;;;5009374;28;20491;-86
2021/01/13 13:16:53;;;;;;;14.87;10.43;;;5.30;99.90;;;;;;5011958;28;20530;-85
2021/01/13 13:19:19;;;;;;;15.73;11.17;;;5.40;99.90;;;;;;5012191;28;20538;-85
2021/01/13 13:21:46;;;;;;;22.03;12.50;;;5.40;99.90;;;;;;5011812;28;20543;-86